Time;durP1;ratioP1;P1;durP2;ratioP2;P2;SDS_P1;SDS_P2;PMS_P1;PMS_P2;Temp;Humidity;BMP_temperature;BMP_pressure;BME280_temperature;BME280_humidity;BME280_pressure;Samples;Min_cycle;Max_cycle;Signal;HPM_P1;HPM_P2
2021/11/15 00:01:03;;;;;;;1.37;1.37;;;9.30;98.00;;;;;;5114737;28;20846;-69
2021/11/15 00:03:30;;;;;;;1.90;1.83;;;9.40;98.00;;;;;;5114730;28;20983;-68
2021/11/15 00:05:57;;;;;;;1.50;1.40;;;9.30;98.00;;;;;;5114800;28;20521;-69
2021/11/15 00:08:27;;;;;;;1.50;1.30;;;9.40;98.00;;;;;;5114634;28;20482;-68
2021/11/15 00:10:54;;;;;;;2.30;1.83;;;9.30;98.00;;;;;;5114547;28;20464;-68
2021/11/15 00:13:21;;;;;;;1.60;1.10;;;9.30;98.00;;;;;;5114533;28;20874;-69
2021/11/15 00:15:48;;;;;;;2.93;2.17;;;9.40;98.00;;;;;;5114669;28;20514;-69
2021/11/15 00:18:15;;;;;;;1.20;1.20;;;9.40;98.00;;;;;;5114634;28;20458;-69
2021/11/15 00:20:42;;;;;;;2.60;1.70;;;9.40;98.00;;;;;;5114548;28;20455;-69
2021/11/15 00:23:09;;;;;;;1.60;1.50;;;9.40;98.00;;;;;;5114673;27;20460;-69
2021/11/15 00:25:38;;;;;;;1.30;1.30;;;9.40;98.00;;;;;;5114610;28;20493;-69
2021/11/15 00:28:05;;;;;;;2.70;1.27;;;9.40;98.00;;;;;;5113170;28;20461;-68
2021/11/15 00:30:32;;;;;;;3.60;1.90;;;9.30;98.00;;;;;;5114628;28;20480;-69
2021/11/15 00:32:59;;;;;;;1.30;1.17;;;9.30;98.00;;;;;;5114447;28;20483;-68
2021/11/15 00:35:26;;;;;;;1.47;1.17;;;9.20;98.00;;;;;;5114478;28;20455;-69
2021/11/15 00:37:53;;;;;;;2.63;1.60;;;9.20;98.00;;;;;;5114435;28;20511;-68
2021/11/15 00:40:21;;;;;;;1.30;1.10;;;9.20;98.00;;;;;;5114301;28;20448;-68
2021/11/15 00:42:49;;;;;;;3.63;1.40;;;9.20;98.00;;;;;;5114084;28;20793;-68
2021/11/15 00:45:18;;;;;;;1.67;1.27;;;9.30;98.00;;;;;;5113971;28;20454;-68
2021/11/15 00:47:47;;;;;;;2.00;1.90;;;9.30;98.00;;;;;;5113781;28;20531;-68
2021/11/15 00:50:17;;;;;;;1.63;1.43;;;9.20;98.00;;;;;;5113979;28;20519;-69
2021/11/15 00:52:44;;;;;;;1.80;1.50;;;9.10;98.00;;;;;;5114069;28;20461;-68
2021/11/15 00:55:11;;;;;;;1.20;1.10;;;9.20;98.00;;;;;;5113546;28;20855;-68
2021/11/15 00:57:39;;;;;;;1.40;1.20;;;9.20;98.00;;;;;;5113704;28;20457;-68
2021/11/15 01:00:12;;;;;;;4.83;1.63;;;9.30;98.00;;;;;;5113610;28;20506;-68
2021/11/15 01:02:39;;;;;;;1.30;1.00;;;9.30;98.00;;;;;;5112181;28;20834;-68
2021/11/15 01:05:08;;;;;;;2.07;1.97;;;9.30;98.00;;;;;;5113372;28;20515;-68
2021/11/15 01:07:36;;;;;;;7.17;1.80;;;9.30;98.00;;;;;;5113523;28;20493;-68
2021/11/15 01:10:04;;;;;;;1.30;1.30;;;9.30;98.00;;;;;;5113354;28;20558;-68
2021/11/15 01:12:33;;;;;;;1.50;1.30;;;9.20;98.00;;;;;;5113308;28;20516;-68
2021/11/15 01:15:00;;;;;;;1.40;1.37;;;9.20;98.00;;;;;;5113184;28;20479;-68
2021/11/15 01:17:28;;;;;;;2.23;1.50;;;9.20;98.00;;;;;;5111983;28;20519;-68
2021/11/15 01:19:55;;;;;;;1.40;1.20;;;9.30;98.00;;;;;;5113258;28;20546;-68
2021/11/15 01:22:22;;;;;;;1.57;1.20;;;9.30;98.00;;;;;;5113338;28;20963;-68
2021/11/15 01:24:49;;;;;;;1.63;1.33;;;9.20;98.00;;;;;;5113318;28;20482;-68
2021/11/15 01:27:16;;;;;;;1.73;1.27;;;9.20;98.00;;;;;;5112107;28;20515;-68
2021/11/15 01:29:45;;;;;;;1.20;1.00;;;9.20;98.00;;;;;;5111911;28;20587;-68
2021/11/15 01:32:12;;;;;;;1.80;1.53;;;9.20;98.00;;;;;;5113257;28;20510;-68
2021/11/15 01:34:41;;;;;;;2.70;1.30;;;9.20;98.00;;;;;;5112839;28;20452;-68
2021/11/15 01:37:08;;;;;;;1.43;1.30;;;9.20;98.00;;;;;;5111077;28;20516;-68
2021/11/15 01:39:36;;;;;;;1.40;1.10;;;9.20;98.00;;;;;;5112316;28;20542;-68
2021/11/15 01:42:04;;;;;;;1.30;1.30;;;9.20;98.00;;;;;;5112374;28;20515;-68
2021/11/15 01:44:31;;;;;;;1.60;1.40;;;9.30;98.00;;;;;;5113040;28;20453;-68
2021/11/15 01:46:58;;;;;;;3.90;1.67;;;9.30;98.00;;;;;;5112986;28;21045;-68
2021/11/15 01:49:27;;;;;;;2.33;1.73;;;9.30;98.00;;;;;;5112929;28;20477;-68
2021/11/15 01:51:55;;;;;;;1.70;1.33;;;9.30;98.00;;;;;;5112922;28;20457;-68
2021/11/15 01:54:23;;;;;;;2.63;1.13;;;9.20;98.00;;;;;;5112972;28;20520;-68
2021/11/15 01:56:51;;;;;;;1.30;1.20;;;9.20;98.00;;;;;;5111619;28;20458;-68
2021/11/15 01:59:18;;;;;;;1.20;1.10;;;9.10;98.00;;;;;;5112964;28;20451;-68
2021/11/15 02:01:45;;;;;;;1.27;1.07;;;9.20;98.00;;;;;;5112328;28;20462;-68
2021/11/15 02:04:12;;;;;;;1.30;1.00;;;9.10;98.00;;;;;;5111228;28;20508;-69
2021/11/15 02:06:40;;;;;;;2.37;1.60;;;9.10;98.00;;;;;;5112474;28;20445;-68
2021/11/15 02:09:08;;;;;;;1.57;1.20;;;9.00;98.00;;;;;;5112356;28;20514;-68
2021/11/15 02:11:36;;;;;;;1.40;1.20;;;9.00;98.00;;;;;;5112268;28;20494;-68
2021/11/15 02:14:05;;;;;;;1.30;1.10;;;8.90;98.00;;;;;;5112260;28;20461;-69
2021/11/15 02:16:33;;;;;;;2.13;1.67;;;8.90;98.00;;;;;;5111544;28;20469;-69
2021/11/15 02:19:01;;;;;;;1.20;1.10;;;9.00;98.00;;;;;;5111025;28;21129;-68
2021/11/15 02:21:30;;;;;;;1.70;1.33;;;9.00;98.00;;;;;;5112156;28;20461;-68
2021/11/15 02:23:59;;;;;;;2.80;1.73;;;9.00;98.00;;;;;;5112297;28;20452;-68
2021/11/15 02:26:26;;;;;;;1.20;1.00;;;9.00;98.00;;;;;;5112166;28;20461;-69
2021/11/15 02:28:55;;;;;;;1.20;1.00;;;9.10;98.00;;;;;;5112172;28;20447;-68
2021/11/15 02:31:27;;;;;;;1.20;1.00;;;9.20;98.00;;;;;;5112127;28;20541;-68
2021/11/15 02:33:57;;;;;;;1.20;1.00;;;9.20;98.00;;;;;;5112195;28;20458;-68
2021/11/15 02:36:26;;;;;;;1.63;1.37;;;9.10;98.00;;;;;;5112261;28;20449;-69
2021/11/15 02:38:55;;;;;;;1.20;1.00;;;9.00;98.00;;;;;;5112277;28;20666;-69
2021/11/15 02:41:23;;;;;;;3.00;1.30;;;9.00;98.00;;;;;;5112002;28;20457;-68
2021/11/15 02:43:51;;;;;;;1.47;1.30;;;9.00;98.00;;;;;;5111896;28;20455;-68
2021/11/15 02:46:18;;;;;;;1.20;1.10;;;8.90;98.00;;;;;;5112363;28;20451;-69
2021/11/15 02:48:47;;;;;;;1.50;1.40;;;9.00;98.00;;;;;;5112005;28;20519;-68
2021/11/15 02:51:16;;;;;;;1.80;1.50;;;9.00;98.00;;;;;;5112146;28;20927;-68
2021/11/15 02:53:44;;;;;;;1.20;1.10;;;8.90;98.00;;;;;;5112126;28;20537;-68
2021/11/15 02:56:13;;;;;;;1.30;1.20;;;8.80;98.00;;;;;;5112023;28;20456;-68
2021/11/15 02:58:40;;;;;;;1.57;1.20;;;8.90;98.00;;;;;;5111965;28;20453;-68
2021/11/15 03:01:10;;;;;;;1.20;1.13;;;8.80;98.00;;;;;;5112044;28;20956;-68
2021/11/15 03:03:38;;;;;;;2.93;1.80;;;8.90;98.00;;;;;;5112023;28;20874;-68
2021/11/15 03:06:05;;;;;;;1.60;1.20;;;9.00;98.00;;;;;;5111792;28;20509;-68
2021/11/15 03:08:36;;;;;;;1.43;1.20;;;9.00;98.00;;;;;;5112179;28;20504;-68
2021/11/15 03:11:05;;;;;;;3.30;1.87;;;8.90;98.00;;;;;;5110537;28;20479;-68
2021/11/15 03:13:36;;;;;;;4.03;1.70;;;8.90;98.00;;;;;;5111600;28;20530;-68
2021/11/15 03:16:04;;;;;;;1.30;1.10;;;8.90;98.00;;;;;;5111825;28;20491;-68
2021/11/15 03:18:35;;;;;;;1.60;1.27;;;8.90;98.00;;;;;;5111587;28;20987;-68
2021/11/15 03:21:04;;;;;;;1.20;1.00;;;8.80;98.00;;;;;;5111831;28;20505;-68
2021/11/15 03:23:35;;;;;;;1.20;1.10;;;8.80;98.00;;;;;;5111422;28;20458;-68
2021/11/15 03:26:02;;;;;;;3.83;1.73;;;8.90;98.00;;;;;;5111481;28;20456;-68
2021/11/15 03:28:32;;;;;;;1.20;1.10;;;8.70;98.00;;;;;;5113242;28;20519;-68
2021/11/15 03:31:03;;;;;;;1.20;1.20;;;8.60;98.00;;;;;;5115265;28;20524;-68
2021/11/15 03:33:36;;;;;;;1.70;1.60;;;8.60;98.00;;;;;;5115369;28;20460;-68
2021/11/15 03:36:04;;;;;;;1.30;1.20;;;8.60;98.00;;;;;;5115416;28;20508;-68
2021/11/15 03:38:31;;;;;;;3.20;1.40;;;8.70;98.00;;;;;;5115264;28;20452;-68
2021/11/15 03:41:01;;;;;;;1.40;1.30;;;8.70;98.00;;;;;;5115333;28;21211;-68
2021/11/15 03:43:28;;;;;;;1.90;1.60;;;8.60;98.00;;;;;;5115178;28;20458;-68
2021/11/15 03:45:55;;;;;;;1.43;1.43;;;8.60;98.00;;;;;;5115348;28;20455;-68
2021/11/15 03:48:26;;;;;;;1.30;1.20;;;8.70;98.00;;;;;;5115207;28;20456;-68
2021/11/15 03:50:55;;;;;;;1.30;1.13;;;8.70;98.00;;;;;;5115105;28;20487;-68
2021/11/15 03:53:24;;;;;;;1.20;1.10;;;8.70;98.00;;;;;;5114968;28;20998;-68
2021/11/15 03:55:52;;;;;;;1.70;1.40;;;8.70;98.00;;;;;;5115070;28;20904;-68
2021/11/15 03:58:19;;;;;;;1.40;1.10;;;8.60;98.00;;;;;;5113793;28;20553;-68
2021/11/15 04:00:46;;;;;;;1.97;1.20;;;8.70;98.00;;;;;;5115086;28;20450;-68
2021/11/15 04:03:20;;;;;;;1.47;1.17;;;8.70;98.00;;;;;;5114895;28;21022;-68
2021/11/15 04:05:55;;;;;;;2.00;1.73;;;8.70;98.00;;;;;;5113545;28;20457;-68
2021/11/15 04:08:24;;;;;;;1.30;1.10;;;8.70;98.00;;;;;;5114886;28;20452;-68
2021/11/15 04:10:52;;;;;;;1.37;1.33;;;8.70;98.00;;;;;;5114618;28;20556;-68
2021/11/15 04:13:21;;;;;;;1.93;1.37;;;8.80;98.00;;;;;;5114519;28;20460;-69
2021/11/15 04:15:50;;;;;;;1.50;1.10;;;8.80;98.00;;;;;;5114665;28;20461;-68
2021/11/15 04:18:19;;;;;;;1.20;0.90;;;8.70;98.00;;;;;;5114792;28;20459;-68
2021/11/15 04:20:48;;;;;;;1.73;1.13;;;8.70;98.00;;;;;;5114538;28;20443;-68
2021/11/15 04:23:15;;;;;;;1.93;1.50;;;8.70;98.00;;;;;;5114757;28;20464;-68
2021/11/15 04:25:42;;;;;;;4.13;1.63;;;8.70;98.00;;;;;;5114695;28;20509;-68
2021/11/15 04:28:10;;;;;;;1.20;1.10;;;8.50;98.00;;;;;;5114128;28;20460;-68
2021/11/15 04:30:37;;;;;;;1.20;1.00;;;8.50;98.00;;;;;;5114477;28;20483;-68
2021/11/15 04:33:06;;;;;;;1.30;1.20;;;8.60;98.00;;;;;;5112921;28;20455;-68
2021/11/15 04:35:41;;;;;;;2.30;1.30;;;8.50;98.00;;;;;;5114175;28;20501;-68
2021/11/15 04:38:09;;;;;;;1.40;1.40;;;8.60;98.00;;;;;;5114217;28;20540;-68
2021/11/15 04:40:37;;;;;;;1.57;1.13;;;8.70;98.00;;;;;;5113248;28;20472;-68
2021/11/15 04:43:05;;;;;;;2.70;1.37;;;8.60;98.00;;;;;;5113920;28;20451;-68
2021/11/15 04:45:32;;;;;;;1.20;1.00;;;8.60;98.00;;;;;;5113999;28;20509;-68
2021/11/15 04:47:59;;;;;;;1.70;1.63;;;8.60;98.00;;;;;;5113726;28;20586;-68
2021/11/15 04:50:27;;;;;;;2.63;1.47;;;8.70;98.00;;;;;;5113942;28;20475;-68
2021/11/15 04:52:55;;;;;;;1.20;1.10;;;8.70;98.00;;;;;;5114015;28;20513;-68
2021/11/15 04:55:25;;;;;;;1.20;1.03;;;8.60;98.00;;;;;;5113849;28;20464;-68
2021/11/15 04:57:54;;;;;;;1.33;1.30;;;8.70;98.00;;;;;;5113775;28;20490;-68
2021/11/15 05:00:24;;;;;;;2.83;1.70;;;8.60;98.00;;;;;;5113903;28;20455;-68
2021/11/15 05:02:52;;;;;;;1.50;1.50;;;8.50;98.00;;;;;;5113708;28;21000;-68
2021/11/15 05:05:20;;;;;;;1.20;1.00;;;8.60;98.00;;;;;;5112284;28;20456;-68
2021/11/15 05:07:48;;;;;;;1.20;1.20;;;8.50;98.00;;;;;;5113535;28;20521;-68
2021/11/15 05:10:16;;;;;;;1.20;1.10;;;8.60;98.00;;;;;;5113686;28;20491;-68
2021/11/15 05:12:44;;;;;;;1.37;1.10;;;8.70;98.00;;;;;;5113301;28;20464;-68
2021/11/15 05:15:13;;;;;;;2.23;1.30;;;8.60;98.00;;;;;;5113502;28;20459;-68
2021/11/15 05:17:40;;;;;;;1.20;1.10;;;8.50;98.00;;;;;;5113374;28;20493;-68
2021/11/15 05:20:10;;;;;;;1.20;1.10;;;8.60;98.00;;;;;;5113426;28;20452;-68
2021/11/15 05:22:37;;;;;;;1.40;1.10;;;8.60;98.00;;;;;;5113441;28;20842;-68
2021/11/15 05:25:06;;;;;;;1.37;1.30;;;8.60;98.00;;;;;;5113290;28;20459;-68
2021/11/15 05:27:33;;;;;;;1.50;1.30;;;8.60;98.00;;;;;;5113193;28;20447;-69
2021/11/15 05:30:03;;;;;;;1.20;1.00;;;8.50;98.00;;;;;;5113175;28;20540;-68
2021/11/15 05:32:30;;;;;;;1.20;1.10;;;8.40;98.00;;;;;;5113060;28;20527;-68
2021/11/15 05:34:57;;;;;;;1.30;1.20;;;8.30;98.00;;;;;;5113233;28;20528;-68
2021/11/15 05:37:24;;;;;;;1.20;1.00;;;8.30;98.00;;;;;;5113141;28;20455;-68
2021/11/15 05:39:52;;;;;;;2.40;1.83;;;8.30;98.00;;;;;;5113419;28;20509;-68
2021/11/15 05:42:19;;;;;;;2.67;1.23;;;8.30;98.00;;;;;;5112886;28;20463;-68
2021/11/15 05:44:46;;;;;;;1.50;1.27;;;8.20;98.00;;;;;;5112984;28;20848;-68
2021/11/15 05:47:15;;;;;;;1.20;1.10;;;8.20;98.00;;;;;;5112846;28;21037;-68
2021/11/15 05:49:42;;;;;;;6.03;1.83;;;8.30;98.00;;;;;;5112292;28;20511;-68
2021/11/15 05:52:09;;;;;;;1.30;1.20;;;8.30;98.00;;;;;;5112027;28;20864;-68
2021/11/15 05:54:37;;;;;;;2.10;1.53;;;8.30;98.00;;;;;;5094569;28;20457;-68
2021/11/15 05:57:05;;;;;;;1.50;1.30;;;8.30;98.00;;;;;;5112545;28;20564;-68
2021/11/15 05:59:32;;;;;;;1.37;1.33;;;8.50;98.00;;;;;;5112776;28;20527;-68
2021/11/15 06:01:59;;;;;;;1.20;1.00;;;8.60;98.00;;;;;;5112474;28;21000;-69
2021/11/15 06:04:28;;;;;;;2.60;1.80;;;8.60;98.00;;;;;;5112429;28;20452;-69
2021/11/15 06:06:55;;;;;;;1.20;1.07;;;8.60;98.00;;;;;;5112356;28;20925;-69
2021/11/15 06:09:22;;;;;;;1.60;1.23;;;8.60;98.00;;;;;;5112410;28;20452;-69
2021/11/15 06:11:49;;;;;;;1.40;1.30;;;8.50;98.00;;;;;;5112183;28;20962;-69
2021/11/15 06:14:16;;;;;;;3.87;2.40;;;8.40;98.00;;;;;;5111251;28;20496;-69
2021/11/15 06:16:44;;;;;;;2.20;1.87;;;8.50;98.00;;;;;;5112343;28;20452;-69
2021/11/15 06:19:12;;;;;;;1.50;1.30;;;8.70;98.00;;;;;;5112325;28;20518;-69
2021/11/15 06:21:43;;;;;;;2.33;2.10;;;8.60;98.00;;;;;;5077662;28;20962;-69
2021/11/15 06:24:10;;;;;;;1.20;1.10;;;8.40;98.00;;;;;;5112279;28;20454;-69
2021/11/15 06:26:37;;;;;;;1.40;1.40;;;8.50;98.00;;;;;;5112424;28;20509;-69
2021/11/15 06:29:04;;;;;;;1.20;1.10;;;8.60;98.00;;;;;;5112190;28;20462;-69
2021/11/15 06:31:32;;;;;;;2.20;1.77;;;8.50;98.00;;;;;;5112189;28;20571;-69
2021/11/15 06:33:59;;;;;;;2.80;1.83;;;8.50;98.00;;;;;;5112119;28;20455;-69
2021/11/15 06:36:26;;;;;;;1.40;1.30;;;8.50;98.00;;;;;;5112317;28;21037;-69
2021/11/15 06:38:57;;;;;;;1.70;1.43;;;8.60;98.00;;;;;;5110899;28;20517;-69
2021/11/15 06:41:24;;;;;;;1.20;1.20;;;8.50;98.00;;;;;;5112413;28;20455;-69
2021/11/15 06:43:51;;;;;;;1.30;1.10;;;8.50;98.00;;;;;;5112098;28;20454;-69
2021/11/15 06:46:20;;;;;;;2.37;1.47;;;8.50;98.00;;;;;;5112286;28;20485;-69
2021/11/15 06:48:47;;;;;;;1.20;1.00;;;8.50;98.00;;;;;;5112131;28;20529;-69
2021/11/15 06:51:16;;;;;;;1.33;1.00;;;8.70;98.00;;;;;;5111960;28;20481;-69
2021/11/15 06:53:45;;;;;;;1.20;1.10;;;8.80;98.00;;;;;;5112342;28;20921;-69
2021/11/15 06:56:13;;;;;;;1.20;1.00;;;8.70;98.00;;;;;;5112072;28;20479;-69
2021/11/15 06:58:40;;;;;;;2.53;2.33;;;8.60;98.00;;;;;;5112099;28;20511;-69
2021/11/15 07:01:07;;;;;;;1.73;1.30;;;8.70;98.00;;;;;;5112174;28;20547;-69
2021/11/15 07:03:35;;;;;;;1.70;1.40;;;8.60;98.00;;;;;;5113682;28;20455;-69
2021/11/15 07:06:02;;;;;;;1.20;1.00;;;8.50;98.00;;;;;;5116074;28;20529;-69
2021/11/15 07:08:32;;;;;;;1.20;1.00;;;8.40;98.00;;;;;;5115321;28;20528;-69
2021/11/15 07:10:59;;;;;;;1.40;1.33;;;8.40;98.00;;;;;;5115031;28;20487;-69
2021/11/15 07:13:27;;;;;;;1.20;1.00;;;8.40;98.00;;;;;;5113756;28;20494;-69
2021/11/15 07:15:54;;;;;;;1.83;1.80;;;8.40;98.00;;;;;;5115627;28;20462;-69
2021/11/15 07:18:21;;;;;;;1.53;1.47;;;8.40;98.00;;;;;;5115634;28;20539;-68
2021/11/15 07:20:48;;;;;;;1.20;1.00;;;8.40;98.00;;;;;;5115680;28;20492;-69
2021/11/15 07:23:16;;;;;;;1.33;1.27;;;8.50;98.00;;;;;;5115620;28;20457;-69
2021/11/15 07:25:46;;;;;;;1.20;1.10;;;8.50;98.00;;;;;;5115520;28;20493;-69
2021/11/15 07:28:13;;;;;;;1.40;1.20;;;8.50;98.00;;;;;;5115467;28;20459;-69
2021/11/15 07:30:42;;;;;;;1.20;1.13;;;8.60;98.00;;;;;;5115497;28;20490;-69
2021/11/15 07:33:09;;;;;;;1.90;1.23;;;8.60;98.00;;;;;;5114370;28;20456;-69
2021/11/15 07:35:36;;;;;;;1.80;1.40;;;8.60;98.00;;;;;;5114194;28;20480;-69
2021/11/15 07:38:03;;;;;;;1.30;1.10;;;8.50;98.00;;;;;;5115288;28;20511;-69
2021/11/15 07:40:30;;;;;;;2.00;1.73;;;8.60;98.00;;;;;;5115374;28;20803;-69
2021/11/15 07:42:58;;;;;;;1.30;1.20;;;8.50;98.00;;;;;;5115286;28;20484;-69
2021/11/15 07:45:25;;;;;;;1.27;1.10;;;8.40;98.00;;;;;;5115186;28;20859;-70
2021/11/15 07:47:54;;;;;;;1.37;1.33;;;8.40;98.00;;;;;;5115146;28;20459;-70
2021/11/15 07:50:21;;;;;;;1.40;1.20;;;8.40;98.00;;;;;;5115050;28;20947;-69
2021/11/15 07:52:48;;;;;;;2.10;1.07;;;8.40;98.00;;;;;;5115082;28;21185;-69
2021/11/15 07:55:17;;;;;;;1.30;1.10;;;8.50;98.00;;;;;;5114088;28;20490;-69
2021/11/15 07:57:44;;;;;;;1.30;1.30;;;8.40;98.00;;;;;;5115067;28;20996;-70
2021/11/15 08:00:14;;;;;;;1.93;1.27;;;8.40;98.00;;;;;;5115223;28;20453;-70
2021/11/15 08:02:42;;;;;;;1.90;1.40;;;8.50;98.00;;;;;;5115112;28;20510;-70
2021/11/15 08:05:12;;;;;;;1.20;1.10;;;8.60;98.00;;;;;;5114922;28;20443;-70
2021/11/15 08:07:39;;;;;;;1.33;1.33;;;8.60;98.00;;;;;;5115221;28;20460;-70
2021/11/15 08:10:10;;;;;;;1.57;1.20;;;8.70;98.00;;;;;;5115164;28;21013;-70
2021/11/15 08:12:40;;;;;;;1.40;1.30;;;8.70;98.00;;;;;;5114447;28;20998;-69
2021/11/15 08:15:13;;;;;;;1.77;1.67;;;8.60;98.00;;;;;;5112806;28;20478;-69
2021/11/15 08:17:42;;;;;;;2.60;1.43;;;8.60;98.00;;;;;;5114472;28;20452;-69
2021/11/15 08:20:14;;;;;;;1.87;1.30;;;8.70;98.00;;;;;;5114685;28;20497;-69
2021/11/15 08:22:41;;;;;;;1.63;1.30;;;8.60;98.00;;;;;;5114562;28;20849;-70
2021/11/15 08:25:53;;;;;;;1.20;1.10;;;8.60;98.00;;;;;;5114303;28;20491;-70
2021/11/15 08:28:20;;;;;;;1.77;1.20;;;8.60;98.00;;;;;;5104326;28;20501;-69
2021/11/15 08:30:47;;;;;;;3.00;1.40;;;8.50;98.00;;;;;;5109521;28;20803;-69
2021/11/15 08:33:14;;;;;;;1.20;1.00;;;8.50;98.00;;;;;;5105731;28;20510;-70
2021/11/15 08:35:43;;;;;;;1.70;1.50;;;8.50;98.00;;;;;;5107744;28;20455;-71
2021/11/15 08:38:40;;;;;;;2.23;1.40;;;8.70;98.00;;;;;;5092255;28;20522;-72
2021/11/15 08:41:07;;;;;;;1.70;1.67;;;8.80;98.00;;;;;;5091842;28;20512;-72
2021/11/15 08:43:44;;;;;;;1.37;1.33;;;8.80;98.00;;;;;;5109477;28;20788;-71
2021/11/15 08:46:15;;;;;;;1.40;1.30;;;8.80;98.00;;;;;;5092833;28;20475;-69
2021/11/15 08:48:44;;;;;;;1.20;1.13;;;8.80;98.00;;;;;;5100812;28;20457;-69
2021/11/15 08:51:14;;;;;;;1.30;1.20;;;8.70;98.00;;;;;;5084528;28;20485;-69
2021/11/15 08:53:42;;;;;;;2.00;1.30;;;8.70;98.00;;;;;;5110076;28;20513;-69
2021/11/15 08:56:10;;;;;;;1.60;1.47;;;8.70;98.00;;;;;;5101231;28;20453;-69
2021/11/15 08:58:39;;;;;;;1.20;1.03;;;8.70;98.00;;;;;;5100829;28;20461;-69
2021/11/15 09:01:06;;;;;;;1.93;1.43;;;8.80;98.00;;;;;;5087892;28;20464;-68
2021/11/15 09:03:36;;;;;;;1.93;1.40;;;8.80;98.00;;;;;;5107804;28;20462;-69
2021/11/15 09:06:04;;;;;;;1.30;1.10;;;8.70;98.00;;;;;;5109657;28;20458;-70
2021/11/15 09:08:32;;;;;;;1.60;1.13;;;8.70;98.00;;;;;;5093224;28;20525;-68
2021/11/15 09:10:59;;;;;;;1.20;1.03;;;8.70;98.00;;;;;;5093241;28;20525;-68
2021/11/15 09:13:26;;;;;;;1.20;0.90;;;8.70;98.00;;;;;;5093138;28;20459;-68
2021/11/15 09:15:53;;;;;;;1.77;1.27;;;8.60;98.00;;;;;;5093445;28;20774;-68
2021/11/15 09:18:20;;;;;;;1.53;1.30;;;8.80;98.00;;;;;;5093116;28;20452;-68
2021/11/15 09:20:48;;;;;;;1.33;1.20;;;8.80;98.00;;;;;;5092046;28;20879;-68
2021/11/15 09:23:17;;;;;;;1.60;1.23;;;8.80;98.00;;;;;;5093299;28;20467;-68
2021/11/15 09:25:46;;;;;;;1.87;1.30;;;8.70;98.00;;;;;;5092863;28;20513;-68
2021/11/15 09:28:15;;;;;;;1.50;1.20;;;8.80;98.00;;;;;;5092848;28;20460;-68
2021/11/15 09:30:43;;;;;;;1.33;1.30;;;8.90;98.00;;;;;;5092852;28;20525;-68
2021/11/15 09:33:11;;;;;;;1.97;1.27;;;8.90;98.00;;;;;;5092431;28;20540;-78
2021/11/15 09:35:42;;;;;;;1.47;1.27;;;8.90;98.00;;;;;;5092103;28;20456;-68
2021/11/15 09:38:10;;;;;;;1.70;1.37;;;8.80;98.00;;;;;;5091880;28;20451;-68
2021/11/15 09:40:37;;;;;;;1.40;1.37;;;8.90;98.00;;;;;;5091907;28;20459;-68
2021/11/15 09:43:05;;;;;;;1.20;1.10;;;9.20;98.00;;;;;;5091627;28;20445;-69
2021/11/15 09:45:33;;;;;;;1.37;1.10;;;9.20;98.00;;;;;;5091669;28;20458;-68
2021/11/15 09:48:01;;;;;;;1.43;1.10;;;9.10;98.00;;;;;;5091516;28;20457;-69
2021/11/15 09:50:28;;;;;;;1.30;1.20;;;9.10;98.00;;;;;;5092112;28;20636;-68
2021/11/15 09:52:55;;;;;;;1.30;1.30;;;9.00;98.00;;;;;;5091567;28;20850;-68
2021/11/15 09:55:23;;;;;;;1.30;1.07;;;9.20;98.00;;;;;;5091615;28;20502;-68
2021/11/15 09:57:50;;;;;;;1.40;1.40;;;9.20;98.00;;;;;;5091592;28;20462;-69
2021/11/15 10:00:22;;;;;;;1.20;1.10;;;9.20;98.00;;;;;;5091408;28;20471;-68
2021/11/15 10:02:50;;;;;;;1.83;1.67;;;9.10;98.00;;;;;;5091346;28;20459;-68
2021/11/15 10:05:18;;;;;;;1.50;1.10;;;9.00;98.00;;;;;;5091619;28;20519;-68
2021/11/15 10:07:48;;;;;;;2.17;1.40;;;9.10;98.00;;;;;;5090209;28;21054;-67
2021/11/15 10:10:34;;;;;;;1.97;1.20;;;9.10;98.00;;;;;;5090332;28;20445;-69
2021/11/15 10:13:23;;;;;;;1.87;1.67;;;9.10;98.00;;;;;;5106208;28;20496;-68
2021/11/15 10:15:55;;;;;;;1.37;1.13;;;9.00;98.00;;;;;;5107715;28;20450;-70
2021/11/15 10:18:31;;;;;;;1.20;1.00;;;8.90;98.00;;;;;;5090869;28;20459;-69
2021/11/15 10:21:00;;;;;;;1.60;1.47;;;9.00;98.00;;;;;;5083725;28;20459;-69
2021/11/15 10:23:31;;;;;;;1.37;1.10;;;9.10;98.00;;;;;;5097456;28;20961;-67
2021/11/15 10:26:02;;;;;;;1.30;1.20;;;9.10;98.00;;;;;;5089495;28;20463;-69
2021/11/15 10:28:31;;;;;;;1.53;1.27;;;9.20;98.00;;;;;;5088594;28;20464;-70
2021/11/15 10:31:00;;;;;;;1.30;1.10;;;9.20;98.00;;;;;;5088719;28;20533;-69
2021/11/15 10:33:40;;;;;;;1.90;1.73;;;9.30;98.00;;;;;;5099323;28;20489;-70
2021/11/15 10:36:07;;;;;;;1.20;1.10;;;9.40;98.00;;;;;;5106652;28;20945;-70
2021/11/15 10:38:46;;;;;;;3.07;1.97;;;9.30;98.00;;;;;;5094981;28;20501;-70
2021/11/15 10:41:15;;;;;;;1.40;1.40;;;9.20;98.00;;;;;;5105282;28;20473;-70
2021/11/15 10:43:43;;;;;;;1.30;1.27;;;9.10;98.00;;;;;;5091924;28;20474;-71
2021/11/15 10:46:28;;;;;;;2.23;1.40;;;9.10;98.00;;;;;;5104350;28;20803;-70
2021/11/15 10:48:58;;;;;;;1.30;1.00;;;9.00;98.00;;;;;;5083873;28;21047;-70
2021/11/15 10:51:44;;;;;;;1.20;1.10;;;8.90;98.00;;;;;;5089093;28;20519;-70
2021/11/15 10:54:52;;;;;;;1.20;1.10;;;8.90;98.00;;;;;;5098789;28;20474;-70
2021/11/15 10:57:38;;;;;;;1.30;1.17;;;9.00;98.00;;;;;;5086555;28;20460;-70
2021/11/15 11:00:19;;;;;;;1.30;1.30;;;9.10;98.00;;;;;;5102116;28;20461;-70
2021/11/15 11:02:49;;;;;;;1.70;1.60;;;9.10;98.00;;;;;;5105719;28;20455;-70
2021/11/15 11:05:18;;;;;;;5.23;2.03;;;9.20;98.00;;;;;;5100154;28;20452;-70
2021/11/15 11:07:48;;;;;;;1.97;1.43;;;9.20;98.00;;;;;;5098758;28;20457;-70
2021/11/15 11:10:18;;;;;;;1.63;1.30;;;9.10;98.00;;;;;;5098786;28;20456;-70
2021/11/15 11:12:56;;;;;;;1.50;1.10;;;9.10;98.00;;;;;;5106531;28;20506;-70
2021/11/15 11:15:30;;;;;;;1.27;1.23;;;9.20;98.00;;;;;;5099354;28;20931;-70
2021/11/15 11:18:08;;;;;;;2.17;1.30;;;9.20;98.00;;;;;;5090289;28;20505;-70
2021/11/15 11:26:57;;;;;;;1.20;1.20;;;9.00;98.00;;;;;;5091645;28;20860;-70
2021/11/15 11:29:29;;;;;;;2.17;1.60;;;9.20;98.00;;;;;;5098804;28;20466;-70
2021/11/15 11:31:58;;;;;;;1.53;1.40;;;9.20;98.00;;;;;;5092408;28;20548;-70
2021/11/15 11:34:28;;;;;;;4.30;1.50;;;9.20;98.00;;;;;;5098512;28;21568;-70
2021/11/15 11:36:55;;;;;;;1.67;1.33;;;9.10;98.00;;;;;;5097927;28;20472;-70
2021/11/15 11:39:24;;;;;;;2.37;1.30;;;9.20;98.00;;;;;;5104963;28;20526;-70
2021/11/15 11:41:59;;;;;;;2.90;1.70;;;9.10;98.00;;;;;;5092686;28;20520;-69
2021/11/15 11:44:29;;;;;;;1.37;1.07;;;9.00;98.00;;;;;;5096996;28;20859;-69
2021/11/15 11:46:59;;;;;;;1.63;1.23;;;9.10;98.00;;;;;;5101301;28;20464;-70
2021/11/15 11:49:29;;;;;;;4.60;1.73;;;9.20;98.00;;;;;;5097403;28;20978;-69
2021/11/15 11:51:59;;;;;;;1.93;1.67;;;9.30;98.00;;;;;;5098274;28;20508;-70
2021/11/15 11:54:29;;;;;;;3.00;1.50;;;9.20;98.00;;;;;;5110088;28;21176;-71
2021/11/15 11:57:06;;;;;;;1.73;1.67;;;9.20;98.00;;;;;;5106220;28;20457;-70
2021/11/15 11:59:35;;;;;;;1.80;1.30;;;9.20;98.00;;;;;;5108446;28;20458;-71
2021/11/15 12:02:07;;;;;;;2.10;1.33;;;9.30;98.00;;;;;;5110800;28;20461;-70
2021/11/15 12:04:46;;;;;;;2.60;1.40;;;9.40;98.00;;;;;;5101393;28;20457;-70
2021/11/15 12:07:28;;;;;;;2.50;1.47;;;9.40;98.00;;;;;;5102967;28;20459;-70
2021/11/15 12:09:56;;;;;;;1.37;1.27;;;9.30;98.00;;;;;;5084543;28;20454;-70
2021/11/15 12:12:23;;;;;;;2.50;1.97;;;9.30;98.00;;;;;;5093683;28;20560;-70
2021/11/15 12:14:50;;;;;;;2.90;2.00;;;9.40;98.00;;;;;;5101442;28;20498;-70
2021/11/15 12:17:18;;;;;;;2.83;1.60;;;9.30;98.00;;;;;;5109054;28;20515;-70
2021/11/15 12:20:08;;;;;;;1.40;1.30;;;9.20;98.00;;;;;;5101926;28;20507;-70
2021/11/15 12:22:57;;;;;;;1.50;1.50;;;9.30;98.00;;;;;;5083343;28;20519;-70
2021/11/15 12:25:27;;;;;;;3.77;1.40;;;9.10;98.00;;;;;;5102513;28;20516;-70
2021/11/15 12:27:57;;;;;;;1.97;1.70;;;9.00;98.00;;;;;;5101280;28;20455;-70
2021/11/15 12:30:27;;;;;;;2.90;1.30;;;8.90;98.00;;;;;;5107145;28;20517;-70
2021/11/15 12:33:27;;;;;;;2.07;1.80;;;8.90;98.00;;;;;;5109474;28;20549;-69
2021/11/15 12:36:22;;;;;;;1.70;1.30;;;9.00;98.00;;;;;;5084734;28;20454;-70
2021/11/15 12:38:51;;;;;;;1.20;1.07;;;9.00;98.00;;;;;;5101064;28;20541;-70
2021/11/15 12:41:39;;;;;;;3.00;1.87;;;9.10;98.00;;;;;;5097302;28;20487;-71
2021/11/15 12:44:24;;;;;;;3.20;1.40;;;9.00;98.00;;;;;;5107314;28;21020;-70
2021/11/15 12:46:55;;;;;;;2.03;1.23;;;9.00;98.00;;;;;;5093245;28;20457;-70
2021/11/15 12:49:29;;;;;;;2.40;1.43;;;8.90;98.00;;;;;;5098170;28;20456;-70
2021/11/15 12:52:19;;;;;;;1.70;1.33;;;8.90;98.00;;;;;;5093145;28;20460;-70
2021/11/15 12:54:48;;;;;;;4.07;2.07;;;8.90;98.00;;;;;;5099981;28;20551;-70
2021/11/15 12:57:30;;;;;;;2.60;1.80;;;8.80;98.00;;;;;;5088936;28;20559;-70
2021/11/15 12:59:59;;;;;;;1.37;1.33;;;8.90;98.00;;;;;;5109464;28;20452;-70
2021/11/15 13:02:27;;;;;;;2.33;1.67;;;8.90;98.00;;;;;;5103694;28;20460;-70
2021/11/15 13:04:56;;;;;;;2.40;1.93;;;9.00;98.00;;;;;;5101119;28;20861;-70
2021/11/15 13:07:25;;;;;;;1.37;1.37;;;9.00;98.00;;;;;;5096909;28;20448;-71
2021/11/15 13:09:54;;;;;;;3.87;2.27;;;9.00;98.00;;;;;;5100265;28;20455;-70
2021/11/15 13:12:21;;;;;;;1.50;1.23;;;9.00;98.00;;;;;;5103125;28;20479;-70
2021/11/15 13:14:49;;;;;;;1.60;1.60;;;9.10;98.00;;;;;;5097744;28;20453;-70
2021/11/15 13:17:17;;;;;;;1.67;1.40;;;9.20;98.00;;;;;;5095209;28;20539;-70